Time;durP1;ratioP1;P1;durP2;ratioP2;P2;SDS_P1;SDS_P2;PMS_P1;PMS_P2;Temp;Humidity;BMP_temperature;BMP_pressure;BME280_temperature;BME280_humidity;BME280_pressure;Samples;Min_cycle;Max_cycle;Signal;HPM_P1;HPM_P2
2021/12/25 00:00:00;;;;;;;9.03;7.63;;;;;;;;;;2073464;28;20181;-56
2021/12/25 00:01:04;;;;;;;7.63;6.93;;;;;;;;;;2072938;28;20173;-52
2021/12/25 00:02:07;;;;;;;8.57;7.77;;;;;;;;;;2065693;28;20177;-55
2021/12/25 00:03:07;;;;;;;12.13;6.93;;;;;;;;;;2066292;28;20197;-57
2021/12/25 00:04:08;;;;;;;8.57;7.50;;;;;;;;;;2074653;28;20721;-55
2021/12/25 00:05:08;;;;;;;8.83;7.70;;;;;;;;;;2066436;28;20257;-56
2021/12/25 00:06:08;;;;;;;9.33;7.70;;;;;;;;;;2066668;28;20176;-52
2021/12/25 00:07:09;;;;;;;8.50;7.10;;;;;;;;;;2074632;28;20235;-58
2021/12/25 00:08:09;;;;;;;8.20;7.17;;;;;;;;;;2075856;28;20630;-58
2021/12/25 00:09:09;;;;;;;7.80;6.97;;;;;;;;;;2075839;28;20169;-57
2021/12/25 00:10:09;;;;;;;8.47;6.97;;;;;;;;;;2074479;28;20637;-58
2021/12/25 00:11:10;;;;;;;9.40;7.23;;;;;;;;;;2075151;28;20176;-58
2021/12/25 00:12:11;;;;;;;8.27;7.17;;;;;;;;;;2075557;28;20200;-58
2021/12/25 00:13:11;;;;;;;7.67;6.67;;;;;;;;;;2074137;28;20508;-58
2021/12/25 00:14:12;;;;;;;8.47;6.43;;;;;;;;;;2075940;28;20207;-56
2021/12/25 00:15:13;;;;;;;9.43;6.70;;;;;;;;;;2076819;28;20183;-58
2021/12/25 00:16:13;;;;;;;7.17;6.53;;;;;;;;;;2075900;28;20433;-58
2021/12/25 00:17:13;;;;;;;8.07;6.40;;;;;;;;;;2075704;28;20277;-57
2021/12/25 00:18:14;;;;;;;8.33;7.43;;;;;;;;;;2076142;28;20180;-58
2021/12/25 00:19:14;;;;;;;10.93;7.70;;;;;;;;;;2077250;28;20189;-61
2021/12/25 00:20:14;;;;;;;7.37;6.67;;;;;;;;;;2078994;28;20172;-58
2021/12/25 00:21:15;;;;;;;8.23;7.07;;;;;;;;;;2077675;28;20573;-58
2021/12/25 00:22:15;;;;;;;7.90;7.10;;;;;;;;;;2076603;28;20169;-58
2021/12/25 00:23:15;;;;;;;6.83;6.27;;;;;;;;;;2076207;28;20545;-57
2021/12/25 00:24:15;;;;;;;8.33;7.53;;;;;;;;;;2076482;28;20552;-57
2021/12/25 00:25:18;;;;;;;10.63;6.60;;;;;;;;;;2066552;28;20173;-58
2021/12/25 00:26:47;;;;;;;7.57;6.57;;;;;;;;;;2066574;28;20554;-56
2021/12/25 00:27:52;;;;;;;8.27;5.97;;;;;;;;;;2074652;28;20664;-55
2021/12/25 00:29:03;;;;;;;7.70;6.80;;;;;;;;;;2074536;28;20425;-56
2021/12/25 00:31:25;;;;;;;7.87;7.07;;;;;;;;;;2074972;28;20953;-57
2021/12/25 00:32:42;;;;;;;11.43;6.50;;;;;;;;;;2066267;28;20196;-57
2021/12/25 00:34:43;;;;;;;7.67;6.33;;;;;;;;;;2074025;28;20414;-57
2021/12/25 00:35:43;;;;;;;6.53;5.93;;;;;;;;;;2074749;28;20208;-59
2021/12/25 00:36:43;;;;;;;6.33;5.43;;;;;;;;;;2065265;28;20240;-56
2021/12/25 00:37:44;;;;;;;7.10;6.50;;;;;;;;;;2065603;28;20197;-56
2021/12/25 00:38:45;;;;;;;7.07;6.40;;;;;;;;;;2073082;28;20747;-55
2021/12/25 00:39:46;;;;;;;5.13;4.63;;;;;;;;;;2064941;28;20213;-56
2021/12/25 00:40:46;;;;;;;4.93;4.53;;;;;;;;;;2065623;28;20181;-55
2021/12/25 00:41:46;;;;;;;4.97;4.60;;;;;;;;;;2065749;28;20189;-59
2021/12/25 00:42:47;;;;;;;5.43;4.80;;;;;;;;;;2065318;28;20193;-57
2021/12/25 00:43:47;;;;;;;4.60;4.23;;;;;;;;;;2065520;28;20169;-62
2021/12/25 00:44:48;;;;;;;4.43;4.13;;;;;;;;;;2067311;28;20181;-56
2021/12/25 00:45:48;;;;;;;4.90;4.40;;;;;;;;;;2074262;28;20700;-57
2021/12/25 00:46:49;;;;;;;4.03;3.73;;;;;;;;;;2073110;28;20296;-56
2021/12/25 00:47:49;;;;;;;4.37;4.07;;;;;;;;;;2065524;28;20220;-55
2021/12/25 00:48:50;;;;;;;3.97;3.63;;;;;;;;;;2065379;28;20186;-57
2021/12/25 00:49:50;;;;;;;3.67;3.30;;;;;;;;;;2074229;28;20228;-55
2021/12/25 00:50:50;;;;;;;3.33;3.03;;;;;;;;;;2066695;28;20177;-56
2021/12/25 00:51:51;;;;;;;3.13;2.67;;;;;;;;;;2065070;28;20242;-55
2021/12/25 00:52:51;;;;;;;3.20;3.00;;;;;;;;;;2073666;28;20616;-55
2021/12/25 00:53:52;;;;;;;3.07;2.90;;;;;;;;;;2072957;28;20185;-56
2021/12/25 00:54:52;;;;;;;3.53;3.10;;;;;;;;;;2064542;28;20173;-59
2021/12/25 00:55:52;;;;;;;3.60;3.40;;;;;;;;;;2064513;28;20169;-56
2021/12/25 00:56:52;;;;;;;3.00;2.73;;;;;;;;;;2064024;28;20205;-57
2021/12/25 00:57:53;;;;;;;3.20;3.00;;;;;;;;;;2062962;28;20236;-57
2021/12/25 00:58:53;;;;;;;4.33;3.33;;;;;;;;;;2064185;28;20225;-56
2021/12/25 00:59:53;;;;;;;2.90;2.77;;;;;;;;;;2065132;28;20544;-57
2021/12/25 01:00:53;;;;;;;3.70;2.73;;;;;;;;;;2065095;28;20178;-55
2021/12/25 01:01:55;;;;;;;3.00;2.80;;;;;;;;;;2056966;28;20651;-54
2021/12/25 01:02:55;;;;;;;3.30;3.10;;;;;;;;;;2056729;28;20523;-58
2021/12/25 01:03:57;;;;;;;4.53;2.87;;;;;;;;;;2065414;28;20197;-58
2021/12/25 01:04:57;;;;;;;2.60;2.40;;;;;;;;;;2074083;28;20184;-57
2021/12/25 01:05:57;;;;;;;3.87;3.67;;;;;;;;;;2065418;28;20253;-56
2021/12/25 01:06:58;;;;;;;5.20;4.70;;;;;;;;;;2064875;28;20321;-56
2021/12/25 01:07:58;;;;;;;4.03;3.73;;;;;;;;;;2065447;28;20189;-57
2021/12/25 01:09:01;;;;;;;2.90;2.70;;;;;;;;;;2073555;28;20206;-57
2021/12/25 01:10:03;;;;;;;3.37;2.97;;;;;;;;;;2065500;28;20932;-59
2021/12/25 01:11:04;;;;;;;4.53;3.10;;;;;;;;;;2065607;28;20170;-57
2021/12/25 01:12:05;;;;;;;3.37;2.20;;;;;;;;;;2057789;28;20244;-55
2021/12/25 01:13:11;;;;;;;3.40;3.10;;;;;;;;;;2057471;28;20178;-56
2021/12/25 01:14:31;;;;;;;4.70;3.03;;;;;;;;;;2064807;28;20415;-57
2021/12/25 01:16:10;;;;;;;3.80;3.60;;;;;;;;;;2066452;28;20501;-57
2021/12/25 01:18:52;;;;;;;4.83;4.47;;;;;;;;;;2064726;28;21017;-57
2021/12/25 01:31:08;;;;;;;2.50;2.40;;;;;;;;;;2037224;29;20508;-58
2021/12/25 01:37:46;;;;;;;3.57;2.30;;;;;;;;;;2053635;28;20427;-58
2021/12/25 01:39:26;;;;;;;4.70;2.70;;;;;;;;;;2057999;28;20381;-55
2021/12/25 01:40:58;;;;;;;2.40;2.20;;;;;;;;;;2032859;29;20418;-56
2021/12/25 01:47:45;;;;;;;2.40;2.20;;;;;;;;;;2048938;28;20783;-60
2021/12/25 01:48:46;;;;;;;5.30;2.53;;;;;;;;;;2056844;28;20443;-55
2021/12/25 01:49:46;;;;;;;3.63;2.50;;;;;;;;;;2048965;28;20412;-55
2021/12/25 01:50:46;;;;;;;2.70;2.50;;;;;;;;;;2049018;28;20214;-57
2021/12/25 01:51:47;;;;;;;4.80;2.77;;;;;;;;;;2053135;28;20210;-57
2021/12/25 01:52:47;;;;;;;2.90;2.60;;;;;;;;;;2053984;28;20185;-57
2021/12/25 01:53:47;;;;;;;2.67;2.47;;;;;;;;;;2057241;28;20190;-60
2021/12/25 01:54:47;;;;;;;3.03;2.80;;;;;;;;;;2056935;28;20166;-58
2021/12/25 01:55:48;;;;;;;2.67;2.50;;;;;;;;;;2057297;28;20599;-55
2021/12/25 01:56:48;;;;;;;2.93;2.63;;;;;;;;;;2042656;28;20631;-57
2021/12/25 01:57:49;;;;;;;3.63;2.80;;;;;;;;;;2039655;29;20171;-54
2021/12/25 01:58:51;;;;;;;2.87;2.50;;;;;;;;;;2048501;29;20270;-57
2021/12/25 01:59:52;;;;;;;2.90;2.70;;;;;;;;;;2038934;29;20484;-55
2021/12/25 02:00:53;;;;;;;3.13;2.87;;;;;;;;;;2047973;29;20981;-60
2021/12/25 02:01:54;;;;;;;3.10;2.90;;;;;;;;;;2046804;28;20176;-59
2021/12/25 02:02:54;;;;;;;5.23;3.07;;;;;;;;;;2055908;28;20424;-60
2021/12/25 02:03:55;;;;;;;3.07;2.73;;;;;;;;;;2050598;28;20723;-60
2021/12/25 02:04:55;;;;;;;4.03;2.57;;;;;;;;;;2054439;28;20173;-57
2021/12/25 02:05:59;;;;;;;3.03;2.83;;;;;;;;;;2053408;28;20199;-60
2021/12/25 02:07:05;;;;;;;3.10;2.80;;;;;;;;;;2056652;28;20194;-61
2021/12/25 02:08:05;;;;;;;4.00;3.10;;;;;;;;;;2056375;28;20405;-61
2021/12/25 02:09:06;;;;;;;2.90;2.70;;;;;;;;;;2050272;29;20194;-58
2021/12/25 02:10:07;;;;;;;4.27;3.10;;;;;;;;;;2041505;29;20251;-61
2021/12/25 02:11:07;;;;;;;2.87;2.67;;;;;;;;;;2040781;29;20247;-59
2021/12/25 02:12:08;;;;;;;5.97;3.40;;;;;;;;;;2033391;29;20970;-59
2021/12/25 02:13:11;;;;;;;3.80;3.17;;;;;;;;;;2041190;29;20172;-60
2021/12/25 02:14:11;;;;;;;3.87;3.40;;;;;;;;;;2058244;28;20217;-58
2021/12/25 02:15:16;;;;;;;4.53;3.10;;;;;;;;;;2057933;28;20412;-54
2021/12/25 02:16:24;;;;;;;3.33;3.13;;;;;;;;;;2042901;29;20254;-57
2021/12/25 02:17:49;;;;;;;3.60;3.30;;;;;;;;;;2041833;29;20461;-60
2021/12/25 02:19:20;;;;;;;4.43;3.73;;;;;;;;;;2062202;28;20419;-59
2021/12/25 02:20:34;;;;;;;3.87;3.20;;;;;;;;;;2055734;28;20422;-56
2021/12/25 02:21:37;;;;;;;3.83;3.40;;;;;;;;;;2050138;28;20394;-56
2021/12/25 02:22:37;;;;;;;3.87;3.57;;;;;;;;;;2048765;29;20416;-57
2021/12/25 02:23:38;;;;;;;3.93;3.63;;;;;;;;;;2040783;29;20923;-57
2021/12/25 02:24:40;;;;;;;5.83;3.83;;;;;;;;;;2040527;29;20186;-60
2021/12/25 02:25:40;;;;;;;3.83;3.63;;;;;;;;;;2047848;28;20393;-59
2021/12/25 02:26:43;;;;;;;3.50;3.30;;;;;;;;;;2051635;28;20194;-58
2021/12/25 02:27:44;;;;;;;4.20;3.43;;;;;;;;;;2055777;28;20202;-58
2021/12/25 02:28:44;;;;;;;3.83;3.50;;;;;;;;;;2049668;28;20413;-56
2021/12/25 02:29:44;;;;;;;5.40;3.97;;;;;;;;;;2048432;28;20175;-58
2021/12/25 02:30:46;;;;;;;3.70;3.50;;;;;;;;;;2040415;29;20163;-58
2021/12/25 02:31:47;;;;;;;6.30;3.77;;;;;;;;;;2040443;29;20211;-59
2021/12/25 02:32:47;;;;;;;3.90;3.50;;;;;;;;;;2037551;29;20449;-55
2021/12/25 02:33:47;;;;;;;3.97;3.60;;;;;;;;;;2048050;29;20174;-54
2021/12/25 02:34:49;;;;;;;3.73;3.43;;;;;;;;;;2055002;28;20186;-59
2021/12/25 02:35:49;;;;;;;3.90;3.60;;;;;;;;;;2054340;28;20170;-57
2021/12/25 02:36:50;;;;;;;3.90;3.70;;;;;;;;;;2049667;28;20444;-54
2021/12/25 02:37:51;;;;;;;3.73;3.43;;;;;;;;;;2047937;28;20573;-57
2021/12/25 02:38:52;;;;;;;4.43;3.47;;;;;;;;;;2047631;28;20675;-55
2021/12/25 02:39:53;;;;;;;4.80;3.23;;;;;;;;;;2044552;29;20449;-55
2021/12/25 02:40:54;;;;;;;3.87;3.40;;;;;;;;;;2054372;28;20435;-55
2021/12/25 02:41:54;;;;;;;3.93;3.23;;;;;;;;;;2047656;28;20223;-54
2021/12/25 02:42:54;;;;;;;3.20;3.00;;;;;;;;;;2030664;29;20267;-57
2021/12/25 02:43:55;;;;;;;3.47;3.00;;;;;;;;;;2030698;29;20184;-56
2021/12/25 02:45:09;;;;;;;4.10;3.10;;;;;;;;;;2041321;29;20608;-53
2021/12/25 02:46:09;;;;;;;3.50;3.20;;;;;;;;;;2040676;28;20413;-52
2021/12/25 02:47:15;;;;;;;3.13;2.83;;;;;;;;;;2039061;29;20453;-56
2021/12/25 02:48:17;;;;;;;3.87;3.53;;;;;;;;;;2032810;29;20169;-53
2021/12/25 02:49:18;;;;;;;4.00;3.37;;;;;;;;;;2036102;28;20405;-53
2021/12/25 02:50:26;;;;;;;3.23;2.83;;;;;;;;;;2047134;29;20425;-56
2021/12/25 02:51:26;;;;;;;3.27;2.90;;;;;;;;;;2043461;29;20592;-56
2021/12/25 02:52:27;;;;;;;3.60;3.30;;;;;;;;;;2047927;29;20476;-54
2021/12/25 02:53:27;;;;;;;3.50;3.30;;;;;;;;;;2047775;28;20686;-57
2021/12/25 02:54:28;;;;;;;3.63;3.33;;;;;;;;;;2040739;28;20184;-54
2021/12/25 02:55:29;;;;;;;3.67;3.47;;;;;;;;;;2047506;28;20412;-53
2021/12/25 02:56:29;;;;;;;3.40;3.20;;;;;;;;;;2054344;28;20634;-56
2021/12/25 02:57:31;;;;;;;4.33;3.20;;;;;;;;;;2047554;28;20614;-56
2021/12/25 02:58:31;;;;;;;4.10;3.80;;;;;;;;;;2035890;29;20195;-61
2021/12/25 02:59:32;;;;;;;3.80;3.40;;;;;;;;;;2047641;28;20869;-56
2021/12/25 03:00:34;;;;;;;3.90;3.70;;;;;;;;;;2052505;28;20174;-52
2021/12/25 03:01:34;;;;;;;4.10;3.63;;;;;;;;;;2056774;28;20229;-52
2021/12/25 03:02:34;;;;;;;3.97;3.67;;;;;;;;;;2059504;28;20490;-54
2021/12/25 03:03:35;;;;;;;3.30;3.03;;;;;;;;;;2063413;28;20618;-54
2021/12/25 03:04:36;;;;;;;4.30;3.57;;;;;;;;;;2051772;28;20178;-54
2021/12/25 03:05:37;;;;;;;3.63;3.43;;;;;;;;;;2050164;28;20179;-53
2021/12/25 03:06:37;;;;;;;4.50;4.10;;;;;;;;;;2047298;29;20999;-57
2021/12/25 03:07:38;;;;;;;4.27;3.87;;;;;;;;;;2040361;29;20277;-58
2021/12/25 03:08:38;;;;;;;5.07;3.80;;;;;;;;;;2048015;29;20572;-57
2021/12/25 03:09:40;;;;;;;3.77;3.57;;;;;;;;;;2047691;29;20561;-55
2021/12/25 03:10:41;;;;;;;3.97;3.70;;;;;;;;;;2049022;28;20515;-59
2021/12/25 03:11:41;;;;;;;3.73;3.43;;;;;;;;;;2044333;29;20437;-59
2021/12/25 03:14:23;;;;;;;4.37;4.07;;;;;;;;;;2057008;28;20186;-58
2021/12/25 03:15:30;;;;;;;3.33;3.13;;;;;;;;;;2051782;28;20421;-59
2021/12/25 03:16:30;;;;;;;5.53;3.30;;;;;;;;;;2051025;28;20494;-59
2021/12/25 03:17:32;;;;;;;5.20;3.77;;;;;;;;;;2045387;28;20456;-59
2021/12/25 03:18:38;;;;;;;4.17;3.87;;;;;;;;;;2048688;28;20853;-59
2021/12/25 03:19:39;;;;;;;4.27;3.50;;;;;;;;;;2049175;28;20205;-59
2021/12/25 03:20:44;;;;;;;3.53;3.33;;;;;;;;;;2045463;29;20945;-59
2021/12/25 03:21:45;;;;;;;4.77;3.77;;;;;;;;;;2034879;29;20600;-60
2021/12/25 03:22:45;;;;;;;3.90;3.17;;;;;;;;;;2032301;29;20434;-60
2021/12/25 03:23:46;;;;;;;3.33;3.13;;;;;;;;;;2041026;29;20239;-59
2021/12/25 03:24:47;;;;;;;4.20;3.90;;;;;;;;;;2050448;28;20204;-60
2021/12/25 03:25:51;;;;;;;3.43;3.23;;;;;;;;;;2042394;29;20417;-59
2021/12/25 03:26:54;;;;;;;3.33;3.13;;;;;;;;;;2042311;28;20457;-59
2021/12/25 03:27:57;;;;;;;5.70;3.40;;;;;;;;;;2046920;28;20447;-60
2021/12/25 03:29:02;;;;;;;3.67;3.37;;;;;;;;;;2048222;28;20428;-59
2021/12/25 03:30:03;;;;;;;3.20;3.00;;;;;;;;;;2048758;29;20445;-59
2021/12/25 03:31:07;;;;;;;4.10;3.50;;;;;;;;;;2049111;29;20448;-59
2021/12/25 03:32:08;;;;;;;3.30;3.10;;;;;;;;;;2043444;29;20184;-59
2021/12/25 03:33:11;;;;;;;3.50;3.30;;;;;;;;;;2033921;29;20419;-59
2021/12/25 03:34:11;;;;;;;3.70;3.40;;;;;;;;;;2045476;28;20437;-59
2021/12/25 03:35:12;;;;;;;3.57;3.37;;;;;;;;;;2065041;28;20399;-59
2021/12/25 03:36:12;;;;;;;4.00;3.20;;;;;;;;;;2049797;28;20210;-59
2021/12/25 03:37:12;;;;;;;6.20;3.43;;;;;;;;;;2042459;29;20294;-57
2021/12/25 03:38:14;;;;;;;3.63;3.33;;;;;;;;;;2051364;29;20175;-56
2021/12/25 03:39:15;;;;;;;4.47;3.67;;;;;;;;;;2056053;28;20639;-57
2021/12/25 03:40:15;;;;;;;3.60;3.33;;;;;;;;;;2050512;29;20432;-54
2021/12/25 03:41:17;;;;;;;3.77;3.47;;;;;;;;;;2049916;28;20640;-57
2021/12/25 03:42:18;;;;;;;3.70;3.40;;;;;;;;;;2059682;28;20232;-57
2021/12/25 03:43:19;;;;;;;3.73;3.50;;;;;;;;;;2042724;29;20417;-59
2021/12/25 03:44:20;;;;;;;5.67;3.80;;;;;;;;;;2042628;29;20437;-58
2021/12/25 03:45:20;;;;;;;4.13;3.60;;;;;;;;;;2052087;28;20187;-57
2021/12/25 03:46:21;;;;;;;4.70;4.30;;;;;;;;;;2058744;28;20420;-60
2021/12/25 03:47:29;;;;;;;4.33;3.93;;;;;;;;;;2063945;28;20190;-60
2021/12/25 03:48:56;;;;;;;3.80;3.60;;;;;;;;;;2058239;28;20182;-60
2021/12/25 03:57:40;;;;;;;3.77;3.47;;;;;;;;;;2042702;29;20435;-57
2021/12/25 03:58:41;;;;;;;5.87;4.17;;;;;;;;;;2055243;28;20891;-57
2021/12/25 03:59:43;;;;;;;4.20;3.80;;;;;;;;;;2060237;28;20414;-59
2021/12/25 04:00:46;;;;;;;4.27;3.97;;;;;;;;;;2058395;28;20428;-58
2021/12/25 04:01:53;;;;;;;4.47;4.07;;;;;;;;;;2059157;28;20503;-58
2021/12/25 04:02:57;;;;;;;4.07;3.77;;;;;;;;;;2060296;28;20487;-60
2021/12/25 04:04:15;;;;;;;4.30;4.00;;;;;;;;;;2054543;28;20409;-60
2021/12/25 04:05:24;;;;;;;4.13;3.70;;;;;;;;;;2052475;28;20425;-58
2021/12/25 04:06:25;;;;;;;4.37;4.00;;;;;;;;;;2045348;28;20429;-60
2021/12/25 04:08:46;;;;;;;4.10;3.70;;;;;;;;;;2050907;29;20259;-58
2021/12/25 04:09:47;;;;;;;3.73;3.53;;;;;;;;;;2051091;28;20401;-60
2021/12/25 04:10:52;;;;;;;4.00;3.70;;;;;;;;;;2058802;28;20412;-56
2021/12/25 04:11:56;;;;;;;4.13;3.80;;;;;;;;;;2050863;28;20413;-59
2021/12/25 04:12:57;;;;;;;4.33;3.93;;;;;;;;;;2051528;28;20416;-58
2021/12/25 04:13:58;;;;;;;5.00;4.70;;;;;;;;;;2059319;28;20407;-57
2021/12/25 04:15:02;;;;;;;4.70;4.23;;;;;;;;;;2050802;29;20576;-57
2021/12/25 04:16:03;;;;;;;4.70;4.30;;;;;;;;;;2051013;29;20420;-60
2021/12/25 04:17:03;;;;;;;4.33;4.03;;;;;;;;;;2050420;29;20429;-58
2021/12/25 04:18:06;;;;;;;4.47;4.17;;;;;;;;;;2050683;29;20186;-56
2021/12/25 04:19:06;;;;;;;3.83;3.40;;;;;;;;;;2050951;29;20890;-57
2021/12/25 04:20:07;;;;;;;4.10;3.80;;;;;;;;;;2050876;29;20171;-58
2021/12/25 04:21:07;;;;;;;3.97;3.67;;;;;;;;;;2050757;29;20186;-58
2021/12/25 04:22:15;;;;;;;4.30;3.90;;;;;;;;;;2050948;28;20312;-59
2021/12/25 04:23:23;;;;;;;3.77;3.57;;;;;;;;;;2046090;29;20740;-59
2021/12/25 04:24:24;;;;;;;4.20;3.90;;;;;;;;;;2044226;29;20401;-57
2021/12/25 04:25:28;;;;;;;5.63;3.63;;;;;;;;;;2043477;29;20479;-58
2021/12/25 04:26:28;;;;;;;3.67;3.37;;;;;;;;;;2050699;28;20527;-60
2021/12/25 04:27:29;;;;;;;4.20;3.80;;;;;;;;;;2050065;29;20437;-59
2021/12/25 04:30:03;;;;;;;3.60;3.13;;;;;;;;;;2050674;29;20189;-59
2021/12/25 04:42:48;;;;;;;3.80;2.60;;;;;;;;;;2051255;29;20484;-58
2021/12/25 04:49:36;;;;;;;2.37;2.27;;;;;;;;;;2043420;29;20445;-60
2021/12/25 05:02:30;;;;;;;2.30;2.20;;;;;;;;;;2042545;28;20414;-56
2021/12/25 05:03:48;;;;;;;2.60;2.40;;;;;;;;;;2058220;28;20430;-53
2021/12/25 05:05:13;;;;;;;2.63;2.00;;;;;;;;;;2057599;28;20955;-56
2021/12/25 05:06:40;;;;;;;2.27;2.00;;;;;;;;;;2048874;28;20458;-58
2021/12/25 05:07:40;;;;;;;2.60;2.40;;;;;;;;;;2051906;29;20476;-60
2021/12/25 05:08:41;;;;;;;2.27;2.07;;;;;;;;;;2044638;29;20262;-56
2021/12/25 05:09:41;;;;;;;2.17;2.07;;;;;;;;;;2043859;29;20764;-57
2021/12/25 05:10:42;;;;;;;2.20;2.10;;;;;;;;;;2047731;28;20187;-57
2021/12/25 05:11:42;;;;;;;1.93;1.83;;;;;;;;;;2053447;28;20190;-57
2021/12/25 05:12:42;;;;;;;2.90;2.80;;;;;;;;;;2046665;28;20231;-56
2021/12/25 05:13:45;;;;;;;2.17;2.07;;;;;;;;;;2053520;28;20642;-55
2021/12/25 05:14:46;;;;;;;2.67;2.30;;;;;;;;;;2056697;28;20633;-57
2021/12/25 05:15:47;;;;;;;1.80;1.80;;;;;;;;;;2048546;29;20420;-56
2021/12/25 05:16:51;;;;;;;2.17;2.07;;;;;;;;;;2040599;29;20179;-57
2021/12/25 05:17:52;;;;;;;2.30;2.20;;;;;;;;;;2040779;29;20480;-58
2021/12/25 05:18:53;;;;;;;2.30;2.10;;;;;;;;;;2040878;29;20859;-57
2021/12/25 05:19:53;;;;;;;4.27;2.40;;;;;;;;;;2047500;29;20191;-61
2021/12/25 05:20:53;;;;;;;4.00;1.90;;;;;;;;;;2049930;28;20197;-58
2021/12/25 05:21:54;;;;;;;2.43;2.23;;;;;;;;;;2041688;29;20184;-58
2021/12/25 05:22:56;;;;;;;2.17;2.00;;;;;;;;;;2042003;29;20183;-60
2021/12/25 05:23:58;;;;;;;2.43;2.27;;;;;;;;;;2041659;29;20410;-59
2021/12/25 05:24:59;;;;;;;2.13;1.90;;;;;;;;;;2041395;29;20593;-56
2021/12/25 05:26:02;;;;;;;2.07;1.97;;;;;;;;;;2034077;29;20427;-58
2021/12/25 05:27:02;;;;;;;4.30;1.90;;;;;;;;;;2047673;28;20862;-58
2021/12/25 05:28:04;;;;;;;2.07;1.97;;;;;;;;;;2048649;28;20171;-58
2021/12/25 05:29:05;;;;;;;2.10;1.90;;;;;;;;;;2033830;29;20180;-56
2021/12/25 05:30:07;;;;;;;2.73;2.10;;;;;;;;;;2048744;29;20183;-57
2021/12/25 05:31:20;;;;;;;2.97;2.33;;;;;;;;;;2056472;28;20415;-56
2021/12/25 05:32:40;;;;;;;2.73;2.63;;;;;;;;;;2048404;28;20476;-57
2021/12/25 05:33:56;;;;;;;2.93;2.27;;;;;;;;;;2048574;28;20489;-56
2021/12/25 05:35:07;;;;;;;1.90;1.80;;;;;;;;;;2056713;28;20558;-58
2021/12/25 05:36:28;;;;;;;2.47;2.37;;;;;;;;;;2050467;28;20449;-56
2021/12/25 05:37:45;;;;;;;2.07;1.97;;;;;;;;;;2043717;28;20465;-59
2021/12/25 05:39:12;;;;;;;1.93;1.83;;;;;;;;;;2051288;28;20541;-55
2021/12/25 05:40:14;;;;;;;1.90;1.80;;;;;;;;;;2055942;28;20404;-56
2021/12/25 05:41:18;;;;;;;2.07;1.90;;;;;;;;;;2053054;28;20416;-58
2021/12/25 05:42:20;;;;;;;2.77;2.07;;;;;;;;;;2048220;28;20436;-59
2021/12/25 05:43:22;;;;;;;2.10;2.00;;;;;;;;;;2046322;29;20255;-57
2021/12/25 05:44:22;;;;;;;1.90;1.80;;;;;;;;;;2049794;28;20405;-56
2021/12/25 05:45:46;;;;;;;2.47;2.37;;;;;;;;;;2055996;28;20833;-56
2021/12/25 05:46:55;;;;;;;3.47;3.07;;;;;;;;;;2047040;28;20504;-56
2021/12/25 05:47:56;;;;;;;2.60;2.40;;;;;;;;;;2041264;29;20410;-58
2021/12/25 05:49:08;;;;;;;1.90;1.77;;;;;;;;;;2048595;28;20724;-60
2021/12/25 05:50:27;;;;;;;2.20;2.10;;;;;;;;;;2042654;29;20406;-58
2021/12/25 05:51:57;;;;;;;2.80;1.80;;;;;;;;;;2035468;29;21076;-58
2021/12/25 05:53:17;;;;;;;2.47;1.97;;;;;;;;;;2049240;28;20431;-56
2021/12/25 05:54:55;;;;;;;2.30;2.10;;;;;;;;;;2036200;29;20462;-58
2021/12/25 05:56:23;;;;;;;2.50;2.07;;;;;;;;;;2018326;29;20853;-57
2021/12/25 05:57:50;;;;;;;4.03;2.13;;;;;;;;;;2020425;29;20405;-56
2021/12/25 05:58:58;;;;;;;2.30;2.10;;;;;;;;;;2030781;29;20455;-57
2021/12/25 06:00:37;;;;;;;2.20;2.10;;;;;;;;;;2032087;28;20824;-59
2021/12/25 06:01:38;;;;;;;2.03;2.00;;;;;;;;;;2056184;28;20419;-58
2021/12/25 06:02:40;;;;;;;3.17;2.27;;;;;;;;;;2045674;29;20203;-58
2021/12/25 06:03:41;;;;;;;2.20;2.10;;;;;;;;;;2048533;28;20460;-58
2021/12/25 06:04:41;;;;;;;2.37;2.27;;;;;;;;;;2040461;29;21057;-59
2021/12/25 06:05:43;;;;;;;2.10;2.00;;;;;;;;;;2040718;29;20859;-58
2021/12/25 06:06:44;;;;;;;3.63;2.20;;;;;;;;;;2039705;29;20457;-58
2021/12/25 06:07:44;;;;;;;2.63;2.53;;;;;;;;;;2035093;29;20597;-59
2021/12/25 06:08:44;;;;;;;2.40;2.30;;;;;;;;;;2040296;29;20258;-57
2021/12/25 06:09:45;;;;;;;3.63;2.30;;;;;;;;;;2056979;28;20189;-60
2021/12/25 06:10:46;;;;;;;2.87;2.67;;;;;;;;;;2048982;28;20229;-58
2021/12/25 06:11:46;;;;;;;2.60;2.43;;;;;;;;;;2048344;28;20674;-59
2021/12/25 06:12:48;;;;;;;2.77;2.50;;;;;;;;;;2047896;28;20425;-57
2021/12/25 06:13:57;;;;;;;2.53;2.43;;;;;;;;;;2032443;29;20184;-58
2021/12/25 06:15:10;;;;;;;3.13;2.37;;;;;;;;;;2044330;28;20422;-59
2021/12/25 06:16:27;;;;;;;2.10;2.00;;;;;;;;;;2043180;29;21133;-58
2021/12/25 06:17:43;;;;;;;3.30;2.67;;;;;;;;;;2047294;28;20523;-55
2021/12/25 06:18:50;;;;;;;2.60;2.50;;;;;;;;;;2038852;29;20757;-61
2021/12/25 06:19:59;;;;;;;2.67;2.53;;;;;;;;;;2048468;28;20413;-58
2021/12/25 06:21:32;;;;;;;2.03;1.93;;;;;;;;;;2043350;29;20437;-59
2021/12/25 06:23:10;;;;;;;2.80;2.60;;;;;;;;;;2023184;29;20787;-59
2021/12/25 06:24:30;;;;;;;2.17;2.07;;;;;;;;;;2030354;29;20521;-59
2021/12/25 06:25:48;;;;;;;3.07;2.77;;;;;;;;;;2027877;29;20462;-61
2021/12/25 06:27:02;;;;;;;2.30;2.20;;;;;;;;;;2030910;29;20918;-59
2021/12/25 06:28:25;;;;;;;2.00;1.93;;;;;;;;;;2019229;29;20441;-59
2021/12/25 06:29:57;;;;;;;2.20;2.10;;;;;;;;;;2044986;29;20708;-58
2021/12/25 06:31:27;;;;;;;2.57;2.47;;;;;;;;;;2050348;28;20468;-59
2021/12/25 06:32:36;;;;;;;2.40;2.30;;;;;;;;;;2040274;29;20428;-58
2021/12/25 06:34:00;;;;;;;2.63;2.43;;;;;;;;;;2039659;29;20429;-56
2021/12/25 06:35:35;;;;;;;9.50;2.67;;;;;;;;;;2055496;28;20491;-57
2021/12/25 06:36:55;;;;;;;3.47;2.10;;;;;;;;;;2054621;28;20416;-55
2021/12/25 06:38:20;;;;;;;2.33;2.20;;;;;;;;;;2047971;28;20459;-55
2021/12/25 06:39:40;;;;;;;3.90;2.27;;;;;;;;;;2048403;29;20422;-57
2021/12/25 06:40:45;;;;;;;2.37;2.20;;;;;;;;;;2053377;28;20459;-58
2021/12/25 06:41:45;;;;;;;2.50;2.30;;;;;;;;;;2056203;28;20433;-58
2021/12/25 06:42:50;;;;;;;2.50;2.40;;;;;;;;;;2059620;28;20256;-56
2021/12/25 06:43:51;;;;;;;2.57;2.00;;;;;;;;;;2049881;28;20421;-59
2021/12/25 06:45:05;;;;;;;2.23;2.13;;;;;;;;;;2041802;29;20163;-62
2021/12/25 06:46:05;;;;;;;2.63;2.43;;;;;;;;;;2039731;29;20554;-61
2021/12/25 06:47:06;;;;;;;2.47;2.10;;;;;;;;;;2048719;28;20203;-63
2021/12/25 06:48:08;;;;;;;2.20;2.00;;;;;;;;;;2055877;28;20203;-62
2021/12/25 06:49:40;;;;;;;2.30;2.10;;;;;;;;;;2057762;28;20413;-57
2021/12/25 06:51:19;;;;;;;2.13;1.90;;;;;;;;;;2029681;29;20415;-58
2021/12/25 06:52:27;;;;;;;2.67;2.43;;;;;;;;;;2033238;29;21231;-56
2021/12/25 06:53:44;;;;;;;3.07;2.77;;;;;;;;;;2018232;29;20518;-57
2021/12/25 06:55:04;;;;;;;4.13;2.40;;;;;;;;;;2025524;29;20404;-55
2021/12/25 06:56:12;;;;;;;2.23;2.13;;;;;;;;;;2017315;29;20512;-56
2021/12/25 06:57:31;;;;;;;2.23;2.10;;;;;;;;;;2041108;29;20457;-53
2021/12/25 06:58:31;;;;;;;1.93;1.83;;;;;;;;;;2040229;29;20504;-56
2021/12/25 06:59:32;;;;;;;2.00;1.90;;;;;;;;;;2039763;29;20247;-56
2021/12/25 07:00:32;;;;;;;2.10;2.00;;;;;;;;;;2042924;29;20258;-58
2021/12/25 07:01:36;;;;;;;2.70;2.00;;;;;;;;;;2056240;28;20269;-58
2021/12/25 07:02:37;;;;;;;2.23;2.13;;;;;;;;;;2055600;28;20804;-57
2021/12/25 07:03:56;;;;;;;3.57;2.30;;;;;;;;;;2049760;28;20894;-58
2021/12/25 07:05:16;;;;;;;2.00;1.90;;;;;;;;;;2049299;28;20397;-62
2021/12/25 07:06:40;;;;;;;2.37;2.17;;;;;;;;;;2043938;29;20480;-57
2021/12/25 07:07:43;;;;;;;3.73;2.00;;;;;;;;;;2051055;28;20868;-59
2021/12/25 07:09:06;;;;;;;1.87;1.77;;;;;;;;;;2046967;29;20484;-60
2021/12/25 07:10:25;;;;;;;1.90;1.80;;;;;;;;;;2050341;28;20409;-55
2021/12/25 07:11:30;;;;;;;3.70;1.97;;;;;;;;;;2050849;28;20417;-60
2021/12/25 07:12:53;;;;;;;2.17;2.07;;;;;;;;;;2050172;28;20931;-60
2021/12/25 07:14:22;;;;;;;1.73;1.63;;;;;;;;;;2035065;29;20835;-58
2021/12/25 07:15:23;;;;;;;2.43;2.23;;;;;;;;;;2031534;29;20390;-58
2021/12/25 07:16:54;;;;;;;2.10;2.00;;;;;;;;;;2055382;28;20198;-59
2021/12/25 07:17:54;;;;;;;2.43;2.23;;;;;;;;;;2081710;23;20993;-58
2021/12/25 07:19:15;;;;;;;2.57;2.40;;;;;;;;;;2063995;28;20177;-58
2021/12/25 07:20:33;;;;;;;2.00;1.90;;;;;;;;;;2063653;28;20429;-59
2021/12/25 07:21:49;;;;;;;2.63;2.43;;;;;;;;;;2062122;28;20426;-61
2021/12/25 07:23:08;;;;;;;2.20;2.10;;;;;;;;;;2065579;28;20379;-60
2021/12/25 07:24:21;;;;;;;2.13;2.03;;;;;;;;;;2065535;28;20411;-60
2021/12/25 07:25:28;;;;;;;2.43;2.13;;;;;;;;;;2065152;28;21102;-58
2021/12/25 07:26:58;;;;;;;2.17;2.07;;;;;;;;;;2048742;28;20480;-59
2021/12/25 07:28:14;;;;;;;2.73;2.30;;;;;;;;;;2049533;28;20507;-58
2021/12/25 07:29:14;;;;;;;2.13;2.07;;;;;;;;;;2065589;28;20825;-59
2021/12/25 07:30:14;;;;;;;1.97;1.97;;;;;;;;;;2065962;28;20232;-56
2021/12/25 07:31:15;;;;;;;2.33;2.13;;;;;;;;;;2065842;28;20190;-55
2021/12/25 07:32:15;;;;;;;3.30;2.27;;;;;;;;;;2063314;28;20269;-54
2021/12/25 07:33:16;;;;;;;2.17;2.07;;;;;;;;;;2070662;28;20196;-56
2021/12/25 07:34:17;;;;;;;2.20;2.00;;;;;;;;;;2065456;28;20186;-56
2021/12/25 07:35:17;;;;;;;2.10;2.00;;;;;;;;;;2054529;28;20178;-57
2021/12/25 07:36:17;;;;;;;2.00;1.90;;;;;;;;;;2057603;28;20229;-56
2021/12/25 07:37:18;;;;;;;2.00;1.90;;;;;;;;;;2067823;28;20185;-57
2021/12/25 07:38:20;;;;;;;2.20;2.10;;;;;;;;;;2064168;28;20189;-56
2021/12/25 07:39:20;;;;;;;2.80;2.50;;;;;;;;;;2064302;28;20213;-57
2021/12/25 07:40:20;;;;;;;2.20;2.10;;;;;;;;;;2064562;28;20438;-58
2021/12/25 07:41:21;;;;;;;2.37;2.27;;;;;;;;;;2055906;28;20186;-57